Terminal Aerodrome Forecast
Issued by NWS

Current Version | Previous Version | Text Only | Print | Product List | Glossary Off
Versions: 1 2 3 4 5 6 7 8 9 10 11 12 13 14 15 16 17 18 19

000
FTUS41 KILN 091736
TAFLUK
TAF
KLUK 091736Z 0918/1018 23010KT 4SM -SN OVC025
     FM092100 27012G18KT 2SM -SHSN OVC018
     FM100000 28014G24KT P6SM VCSH OVC018
     FM100300 29010G18KT P6SM BKN025
     FM101000 27008KT P6SM SCT028 BKN200
     FM101200 24006KT P6SM BKN200
     FM101500 23010KT P6SM BKN080=

USA.gov is the U.S. government's official web portal to all federal, state and local government web resources and services.